Thomasville, North Carolina
Current Conditions -  °F | °C
As of 12:55 PM on Saturday 25 Oct 2014 (Local Time) from KEXX Reporting Station
Clear Clear  
Wind Chill: 69°   Ceiling: Unl
Heat Index: 69°   Visibility: 10mi
Dew Point: 35°   Wind: 3mph
Humidity: 29%   Direction: 40°NE
Pressure: 30"   Gusts: NA
Location:  35.88°N, 80.08°W
Report Text: KEXX 251655Z AUTO 04003KT 10SM CLR 20/02 A3000 RMK AO2 T02040016
Loading
Personal Weather Stations






























Interactive Weather Map New forecast layout! Learn more

10-Day Weather Forecast

Advertisements
Track Severe Weather on mobile